sensor_id;sensor_type;location;lat;lon;timestamp;temperature;humidity
37222;DHT22;23119;51.842;-2.230;2023-05-17T00:00:14;11.40;99.90
37222;DHT22;23119;51.842;-2.230;2023-05-17T00:02:40;11.30;99.90
37222;DHT22;23119;51.842;-2.230;2023-05-17T00:05:06;11.30;99.90
37222;DHT22;23119;51.842;-2.230;2023-05-17T00:07:32;11.30;99.90
37222;DHT22;23119;51.842;-2.230;2023-05-17T00:09:58;11.30;99.90
37222;DHT22;23119;51.842;-2.230;2023-05-17T00:12:24;11.30;99.90
37222;DHT22;23119;51.842;-2.230;2023-05-17T00:14:50;11.30;99.90
37222;DHT22;23119;51.842;-2.230;2023-05-17T00:17:17;11.30;99.90
37222;DHT22;23119;51.842;-2.230;2023-05-17T00:19:43;11.20;99.90
37222;DHT22;23119;51.842;-2.230;2023-05-17T00:22:09;11.20;99.90
37222;DHT22;23119;51.842;-2.230;2023-05-17T00:24:35;11.20;99.90
37222;DHT22;23119;51.842;-2.230;2023-05-17T00:27:00;11.20;99.90
37222;DHT22;23119;51.842;-2.230;2023-05-17T00:29:26;11.20;99.90
37222;DHT22;23119;51.842;-2.230;2023-05-17T00:31:52;11.20;99.90
37222;DHT22;23119;51.842;-2.230;2023-05-17T00:34:20;11.20;99.90
37222;DHT22;23119;51.842;-2.230;2023-05-17T00:36:46;11.20;99.90
37222;DHT22;23119;51.842;-2.230;2023-05-17T00:39:11;11.10;99.90
37222;DHT22;23119;51.842;-2.230;2023-05-17T00:41:37;11.10;99.90
37222;DHT22;23119;51.842;-2.230;2023-05-17T00:44:03;11.10;99.90
37222;DHT22;23119;51.842;-2.230;2023-05-17T00:46:29;11.10;99.90
37222;DHT22;23119;51.842;-2.230;2023-05-17T00:48:57;11.10;99.90
37222;DHT22;23119;51.842;-2.230;2023-05-17T00:51:23;11.10;99.90
37222;DHT22;23119;51.842;-2.230;2023-05-17T00:53:49;11.00;99.90
37222;DHT22;23119;51.842;-2.230;2023-05-17T00:56:15;11.00;99.90
37222;DHT22;23119;51.842;-2.230;2023-05-17T00:58:41;10.90;99.90
37222;DHT22;23119;51.842;-2.230;2023-05-17T01:01:07;11.00;99.90
37222;DHT22;23119;51.842;-2.230;2023-05-17T01:03:33;10.90;99.90
37222;DHT22;23119;51.842;-2.230;2023-05-17T01:06:08;10.90;99.90
37222;DHT22;23119;51.842;-2.230;2023-05-17T01:08:34;10.90;99.90
37222;DHT22;23119;51.842;-2.230;2023-05-17T01:16:55;10.80;99.90
37222;DHT22;23119;51.842;-2.230;2023-05-17T01:24:37;10.70;99.90
37222;DHT22;23119;51.842;-2.230;2023-05-17T01:27:04;10.70;99.90
37222;DHT22;23119;51.842;-2.230;2023-05-17T01:29:32;10.60;99.90
37222;DHT22;23119;51.842;-2.230;2023-05-17T01:32:02;10.50;99.90
37222;DHT22;23119;51.842;-2.230;2023-05-17T01:34:30;10.50;99.90
37222;DHT22;23119;51.842;-2.230;2023-05-17T01:36:55;10.50;99.90
37222;DHT22;23119;51.842;-2.230;2023-05-17T01:39:22;10.40;99.90
37222;DHT22;23119;51.842;-2.230;2023-05-17T01:41:58;10.40;99.90
37222;DHT22;23119;51.842;-2.230;2023-05-17T01:44:44;10.30;99.90
37222;DHT22;23119;51.842;-2.230;2023-05-17T01:47:28;10.30;99.90
37222;DHT22;23119;51.842;-2.230;2023-05-17T01:49:58;10.30;99.90
37222;DHT22;23119;51.842;-2.230;2023-05-17T01:52:37;10.30;99.90
37222;DHT22;23119;51.842;-2.230;2023-05-17T01:55:09;10.30;99.90
37222;DHT22;23119;51.842;-2.230;2023-05-17T01:57:44;10.20;99.90
37222;DHT22;23119;51.842;-2.230;2023-05-17T02:00:14;10.30;99.90
37222;DHT22;23119;51.842;-2.230;2023-05-17T02:02:43;10.30;99.90
37222;DHT22;23119;51.842;-2.230;2023-05-17T02:05:10;10.30;99.90
37222;DHT22;23119;51.842;-2.230;2023-05-17T02:07:38;10.30;99.90
37222;DHT22;23119;51.842;-2.230;2023-05-17T02:10:05;10.30;99.90
37222;DHT22;23119;51.842;-2.230;2023-05-17T02:12:33;10.30;99.90
37222;DHT22;23119;51.842;-2.230;2023-05-17T02:15:01;10.30;99.90
37222;DHT22;23119;51.842;-2.230;2023-05-17T02:17:27;10.30;99.90
37222;DHT22;23119;51.842;-2.230;2023-05-17T02:19:52;10.30;99.90
37222;DHT22;23119;51.842;-2.230;2023-05-17T02:22:18;10.30;99.90
37222;DHT22;23119;51.842;-2.230;2023-05-17T02:24:44;10.20;99.90
37222;DHT22;23119;51.842;-2.230;2023-05-17T02:27:11;10.60;99.90
37222;DHT22;23119;51.842;-2.230;2023-05-17T02:29:36;10.20;99.90
37222;DHT22;23119;51.842;-2.230;2023-05-17T02:32:02;10.20;99.90
37222;DHT22;23119;51.842;-2.230;2023-05-17T02:34:28;10.10;99.90
37222;DHT22;23119;51.842;-2.230;2023-05-17T02:36:59;10.10;99.90
37222;DHT22;23119;51.842;-2.230;2023-05-17T02:39:24;10.10;99.90
37222;DHT22;23119;51.842;-2.230;2023-05-17T02:41:50;10.00;99.90
37222;DHT22;23119;51.842;-2.230;2023-05-17T02:44:16;10.00;99.90
37222;DHT22;23119;51.842;-2.230;2023-05-17T02:46:49;10.00;99.90
37222;DHT22;23119;51.842;-2.230;2023-05-17T02:49:17;9.90;99.90
37222;DHT22;23119;51.842;-2.230;2023-05-17T02:51:42;10.00;99.90
37222;DHT22;23119;51.842;-2.230;2023-05-17T02:54:08;9.90;99.90
37222;DHT22;23119;51.842;-2.230;2023-05-17T02:56:37;9.90;99.90
37222;DHT22;23119;51.842;-2.230;2023-05-17T02:59:08;9.90;99.90
37222;DHT22;23119;51.842;-2.230;2023-05-17T03:01:36;9.90;99.90
37222;DHT22;23119;51.842;-2.230;2023-05-17T03:04:04;9.80;99.90
37222;DHT22;23119;51.842;-2.230;2023-05-17T03:06:30;9.80;99.90
37222;DHT22;23119;51.842;-2.230;2023-05-17T03:08:56;9.80;99.90
37222;DHT22;23119;51.842;-2.230;2023-05-17T03:11:24;9.80;99.90
37222;DHT22;23119;51.842;-2.230;2023-05-17T03:13:50;9.80;99.90
37222;DHT22;23119;51.842;-2.230;2023-05-17T03:16:16;9.70;99.90
37222;DHT22;23119;51.842;-2.230;2023-05-17T03:18:45;9.70;99.90
37222;DHT22;23119;51.842;-2.230;2023-05-17T03:21:11;9.70;99.90
37222;DHT22;23119;51.842;-2.230;2023-05-17T03:23:37;9.80;99.90
37222;DHT22;23119;51.842;-2.230;2023-05-17T03:26:07;9.80;99.90
37222;DHT22;23119;51.842;-2.230;2023-05-17T03:28:35;9.80;99.90
37222;DHT22;23119;51.842;-2.230;2023-05-17T03:31:01;9.80;99.90
37222;DHT22;23119;51.842;-2.230;2023-05-17T03:33:27;9.80;99.90
37222;DHT22;23119;51.842;-2.230;2023-05-17T03:35:55;9.90;99.90
37222;DHT22;23119;51.842;-2.230;2023-05-17T03:38:23;9.90;99.90
37222;DHT22;23119;51.842;-2.230;2023-05-17T03:40:50;9.90;99.90
37222;DHT22;23119;51.842;-2.230;2023-05-17T03:43:16;9.80;99.90
37222;DHT22;23119;51.842;-2.230;2023-05-17T03:45:42;9.80;99.90
37222;DHT22;23119;51.842;-2.230;2023-05-17T03:48:07;9.80;99.90
37222;DHT22;23119;51.842;-2.230;2023-05-17T03:50:33;9.80;99.90
37222;DHT22;23119;51.842;-2.230;2023-05-17T03:52:59;9.80;99.90
37222;DHT22;23119;51.842;-2.230;2023-05-17T03:55:27;9.70;99.90
37222;DHT22;23119;51.842;-2.230;2023-05-17T03:57:53;9.80;99.90
37222;DHT22;23119;51.842;-2.230;2023-05-17T04:00:19;9.70;99.90
37222;DHT22;23119;51.842;-2.230;2023-05-17T04:02:47;9.70;99.90
37222;DHT22;23119;51.842;-2.230;2023-05-17T04:05:13;9.70;99.90
37222;DHT22;23119;51.842;-2.230;2023-05-17T04:07:38;9.70;99.90
37222;DHT22;23119;51.842;-2.230;2023-05-17T04:10:05;9.70;99.90
37222;DHT22;23119;51.842;-2.230;2023-05-17T04:12:31;9.70;99.90
37222;DHT22;23119;51.842;-2.230;2023-05-17T04:14:57;9.70;99.90
37222;DHT22;23119;51.842;-2.230;2023-05-17T04:17:22;9.70;99.90
37222;DHT22;23119;51.842;-2.230;2023-05-17T04:19:48;9.70;99.90
37222;DHT22;23119;51.842;-2.230;2023-05-17T04:22:14;9.80;99.90
37222;DHT22;23119;51.842;-2.230;2023-05-17T04:24:39;9.80;99.90
37222;DHT22;23119;51.842;-2.230;2023-05-17T04:27:05;9.90;99.90
37222;DHT22;23119;51.842;-2.230;2023-05-17T04:29:31;9.90;99.90
37222;DHT22;23119;51.842;-2.230;2023-05-17T04:31:58;10.00;99.90
37222;DHT22;23119;51.842;-2.230;2023-05-17T04:34:23;10.10;99.90
37222;DHT22;23119;51.842;-2.230;2023-05-17T04:36:51;10.20;99.90
37222;DHT22;23119;51.842;-2.230;2023-05-17T04:39:18;10.30;99.90
37222;DHT22;23119;51.842;-2.230;2023-05-17T04:41:46;10.40;99.90
37222;DHT22;23119;51.842;-2.230;2023-05-17T04:44:12;10.60;99.90
37222;DHT22;23119;51.842;-2.230;2023-05-17T04:46:40;10.80;99.90
37222;DHT22;23119;51.842;-2.230;2023-05-17T04:49:06;11.00;99.90
37222;DHT22;23119;51.842;-2.230;2023-05-17T04:51:32;11.50;99.90
37222;DHT22;23119;51.842;-2.230;2023-05-17T04:53:58;12.10;99.90
37222;DHT22;23119;51.842;-2.230;2023-05-17T04:56:26;12.90;99.90
37222;DHT22;23119;51.842;-2.230;2023-05-17T04:58:52;13.80;99.90
37222;DHT22;23119;51.842;-2.230;2023-05-17T05:01:21;14.60;99.90
37222;DHT22;23119;51.842;-2.230;2023-05-17T05:03:47;15.50;99.90
37222;DHT22;23119;51.842;-2.230;2023-05-17T05:06:18;16.20;99.90
37222;DHT22;23119;51.842;-2.230;2023-05-17T05:09:04;17.00;99.90
37222;DHT22;23119;51.842;-2.230;2023-05-17T05:11:30;17.80;99.90
37222;DHT22;23119;51.842;-2.230;2023-05-17T05:13:58;18.50;99.30
37222;DHT22;23119;51.842;-2.230;2023-05-17T05:16:24;19.00;98.10
37222;DHT22;23119;51.842;-2.230;2023-05-17T05:18:50;19.50;97.20
37222;DHT22;23119;51.842;-2.230;2023-05-17T05:21:16;20.10;96.30
37222;DHT22;23119;51.842;-2.230;2023-05-17T05:23:42;20.70;95.30
37222;DHT22;23119;51.842;-2.230;2023-05-17T05:26:07;21.20;94.20
37222;DHT22;23119;51.842;-2.230;2023-05-17T05:28:33;21.80;93.30
37222;DHT22;23119;51.842;-2.230;2023-05-17T05:31:01;22.50;92.20
37222;DHT22;23119;51.842;-2.230;2023-05-17T05:33:27;23.20;91.40
37222;DHT22;23119;51.842;-2.230;2023-05-17T05:35:53;24.00;90.40
37222;DHT22;23119;51.842;-2.230;2023-05-17T05:38:22;24.80;89.10
37222;DHT22;23119;51.842;-2.230;2023-05-17T05:40:47;25.50;86.80
37222;DHT22;23119;51.842;-2.230;2023-05-17T05:43:16;26.20;85.20
37222;DHT22;23119;51.842;-2.230;2023-05-17T05:45:42;26.80;83.50
37222;DHT22;23119;51.842;-2.230;2023-05-17T05:48:15;27.20;82.60
37222;DHT22;23119;51.842;-2.230;2023-05-17T05:50:44;27.70;80.90
37222;DHT22;23119;51.842;-2.230;2023-05-17T05:53:12;28.40;79.70
37222;DHT22;23119;51.842;-2.230;2023-05-17T05:55:41;29.10;77.70
37222;DHT22;23119;51.842;-2.230;2023-05-17T05:58:07;29.80;76.50
37222;DHT22;23119;51.842;-2.230;2023-05-17T06:00:34;30.20;75.00
37222;DHT22;23119;51.842;-2.230;2023-05-17T06:03:00;30.90;73.60
37222;DHT22;23119;51.842;-2.230;2023-05-17T06:05:30;31.40;72.50
37222;DHT22;23119;51.842;-2.230;2023-05-17T06:07:56;32.10;71.00
37222;DHT22;23119;51.842;-2.230;2023-05-17T06:10:24;32.50;70.20
37222;DHT22;23119;51.842;-2.230;2023-05-17T06:12:52;32.60;69.00
37222;DHT22;23119;51.842;-2.230;2023-05-17T06:15:18;32.30;68.70
37222;DHT22;23119;51.842;-2.230;2023-05-17T06:17:44;32.00;68.20
37222;DHT22;23119;51.842;-2.230;2023-05-17T06:20:10;31.70;67.80
37222;DHT22;23119;51.842;-2.230;2023-05-17T06:22:36;31.40;67.70
37222;DHT22;23119;51.842;-2.230;2023-05-17T06:25:01;31.40;67.20
37222;DHT22;23119;51.842;-2.230;2023-05-17T06:27:27;31.80;66.90
37222;DHT22;23119;51.842;-2.230;2023-05-17T06:29:53;32.10;66.50
37222;DHT22;23119;51.842;-2.230;2023-05-17T06:32:20;32.40;66.10
37222;DHT22;23119;51.842;-2.230;2023-05-17T06:34:46;32.10;65.80
37222;DHT22;23119;51.842;-2.230;2023-05-17T06:37:12;32.00;65.90
37222;DHT22;23119;51.842;-2.230;2023-05-17T06:39:37;32.20;65.60
37222;DHT22;23119;51.842;-2.230;2023-05-17T06:42:03;32.70;65.10
37222;DHT22;23119;51.842;-2.230;2023-05-17T06:44:29;33.00;64.70
37222;DHT22;23119;51.842;-2.230;2023-05-17T06:46:55;33.10;64.30
37222;DHT22;23119;51.842;-2.230;2023-05-17T06:49:21;33.40;64.10
37222;DHT22;23119;51.842;-2.230;2023-05-17T06:51:46;33.50;63.80
37222;DHT22;23119;51.842;-2.230;2023-05-17T06:54:15;33.80;63.40
37222;DHT22;23119;51.842;-2.230;2023-05-17T06:56:43;33.90;63.10
37222;DHT22;23119;51.842;-2.230;2023-05-17T06:59:12;33.80;62.80
37222;DHT22;23119;51.842;-2.230;2023-05-17T07:01:37;33.70;62.60
37222;DHT22;23119;51.842;-2.230;2023-05-17T07:04:04;33.30;62.60
37222;DHT22;23119;51.842;-2.230;2023-05-17T07:06:30;33.20;62.50
37222;DHT22;23119;51.842;-2.230;2023-05-17T07:08:58;33.20;62.40
37222;DHT22;23119;51.842;-2.230;2023-05-17T07:11:26;33.20;62.40
37222;DHT22;23119;51.842;-2.230;2023-05-17T07:13:52;33.40;62.30
37222;DHT22;23119;51.842;-2.230;2023-05-17T07:16:18;33.40;62.10
37222;DHT22;23119;51.842;-2.230;2023-05-17T07:18:43;33.40;62.20
37222;DHT22;23119;51.842;-2.230;2023-05-17T07:21:09;33.10;62.00
37222;DHT22;23119;51.842;-2.230;2023-05-17T07:23:35;32.70;62.30
37222;DHT22;23119;51.842;-2.230;2023-05-17T07:26:00;32.40;62.70
37222;DHT22;23119;51.842;-2.230;2023-05-17T07:28:29;31.90;62.80
37222;DHT22;23119;51.842;-2.230;2023-05-17T07:30:54;31.20;63.30
37222;DHT22;23119;51.842;-2.230;2023-05-17T07:33:20;30.40;64.00
37222;DHT22;23119;51.842;-2.230;2023-05-17T07:35:46;29.70;64.90
37222;DHT22;23119;51.842;-2.230;2023-05-17T07:38:12;29.10;65.50
37222;DHT22;23119;51.842;-2.230;2023-05-17T07:40:37;29.00;65.80
37222;DHT22;23119;51.842;-2.230;2023-05-17T07:43:06;29.00;65.80
37222;DHT22;23119;51.842;-2.230;2023-05-17T07:45:37;29.00;65.90
37222;DHT22;23119;51.842;-2.230;2023-05-17T07:48:05;29.00;65.80
37222;DHT22;23119;51.842;-2.230;2023-05-17T07:50:31;29.00;65.90
37222;DHT22;23119;51.842;-2.230;2023-05-17T07:52:57;28.90;66.50
37222;DHT22;23119;51.842;-2.230;2023-05-17T07:55:23;28.60;67.00
37222;DHT22;23119;51.842;-2.230;2023-05-17T07:57:48;28.30;67.50
37222;DHT22;23119;51.842;-2.230;2023-05-17T08:00:14;27.80;68.10
37222;DHT22;23119;51.842;-2.230;2023-05-17T08:02:43;27.30;68.70
37222;DHT22;23119;51.842;-2.230;2023-05-17T08:05:11;26.80;69.30
37222;DHT22;23119;51.842;-2.230;2023-05-17T08:07:37;26.60;69.80
37222;DHT22;23119;51.842;-2.230;2023-05-17T08:10:03;26.10;70.00
37222;DHT22;23119;51.842;-2.230;2023-05-17T08:12:29;25.70;70.40
37222;DHT22;23119;51.842;-2.230;2023-05-17T08:15:02;25.50;71.10
37222;DHT22;23119;51.842;-2.230;2023-05-17T08:17:28;25.40;72.00
37222;DHT22;23119;51.842;-2.230;2023-05-17T08:20:01;25.40;72.10
37222;DHT22;23119;51.842;-2.230;2023-05-17T08:22:34;25.50;72.30
37222;DHT22;23119;51.842;-2.230;2023-05-17T08:25:01;25.60;72.70
37222;DHT22;23119;51.842;-2.230;2023-05-17T08:27:27;25.60;73.00
37222;DHT22;23119;51.842;-2.230;2023-05-17T08:29:57;25.70;72.80
37222;DHT22;23119;51.842;-2.230;2023-05-17T08:32:24;25.80;72.80
37222;DHT22;23119;51.842;-2.230;2023-05-17T08:34:53;25.80;72.90
37222;DHT22;23119;51.842;-2.230;2023-05-17T08:37:22;25.80;72.90
37222;DHT22;23119;51.842;-2.230;2023-05-17T08:39:48;25.60;73.20
37222;DHT22;23119;51.842;-2.230;2023-05-17T08:42:22;25.50;73.00
37222;DHT22;23119;51.842;-2.230;2023-05-17T08:44:52;25.50;73.30
37222;DHT22;23119;51.842;-2.230;2023-05-17T08:47:19;25.60;73.70
37222;DHT22;23119;51.842;-2.230;2023-05-17T08:49:57;25.60;74.00
37222;DHT22;23119;51.842;-2.230;2023-05-17T08:52:29;25.60;74.40
37222;DHT22;23119;51.842;-2.230;2023-05-17T08:54:57;25.70;74.30
37222;DHT22;23119;51.842;-2.230;2023-05-17T08:57:26;25.50;74.20
37222;DHT22;23119;51.842;-2.230;2023-05-17T08:59:53;25.60;74.30
37222;DHT22;23119;51.842;-2.230;2023-05-17T09:02:20;25.70;74.50
37222;DHT22;23119;51.842;-2.230;2023-05-17T09:04:49;25.60;74.30
37222;DHT22;23119;51.842;-2.230;2023-05-17T09:07:23;25.80;74.40
37222;DHT22;23119;51.842;-2.230;2023-05-17T09:09:52;25.80;74.60
37222;DHT22;23119;51.842;-2.230;2023-05-17T09:12:20;26.00;74.40
37222;DHT22;23119;51.842;-2.230;2023-05-17T09:14:47;25.90;74.00
37222;DHT22;23119;51.842;-2.230;2023-05-17T09:17:16;25.70;73.80
37222;DHT22;23119;51.842;-2.230;2023-05-17T09:19:45;25.40;74.30
37222;DHT22;23119;51.842;-2.230;2023-05-17T09:22:17;24.60;74.80
37222;DHT22;23119;51.842;-2.230;2023-05-17T09:24:43;24.20;76.00
37222;DHT22;23119;51.842;-2.230;2023-05-17T09:27:14;23.70;77.50
37222;DHT22;23119;51.842;-2.230;2023-05-17T09:29:40;23.60;77.10
37222;DHT22;23119;51.842;-2.230;2023-05-17T09:32:18;23.80;78.30
37222;DHT22;23119;51.842;-2.230;2023-05-17T09:34:50;24.00;78.30
37222;DHT22;23119;51.842;-2.230;2023-05-17T09:37:22;23.90;78.20
37222;DHT22;23119;51.842;-2.230;2023-05-17T09:39:47;23.90;78.40
37222;DHT22;23119;51.842;-2.230;2023-05-17T09:42:14;23.70;78.70
37222;DHT22;23119;51.842;-2.230;2023-05-17T09:44:54;23.90;79.20
37222;DHT22;23119;51.842;-2.230;2023-05-17T09:47:26;24.10;78.30
37222;DHT22;23119;51.842;-2.230;2023-05-17T09:49:56;24.10;78.70
37222;DHT22;23119;51.842;-2.230;2023-05-17T09:52:23;24.40;78.60
37222;DHT22;23119;51.842;-2.230;2023-05-17T09:55:09;24.50;78.60
37222;DHT22;23119;51.842;-2.230;2023-05-17T09:57:37;24.40;78.50
37222;DHT22;23119;51.842;-2.230;2023-05-17T10:00:04;24.10;78.70
37222;DHT22;23119;51.842;-2.230;2023-05-17T10:02:35;23.70;78.90
37222;DHT22;23119;51.842;-2.230;2023-05-17T10:05:04;23.40;79.30
37222;DHT22;23119;51.842;-2.230;2023-05-17T10:07:32;23.20;79.90
37222;DHT22;23119;51.842;-2.230;2023-05-17T10:09:59;23.00;80.30
37222;DHT22;23119;51.842;-2.230;2023-05-17T10:12:27;23.00;80.30
37222;DHT22;23119;51.842;-2.230;2023-05-17T10:14:56;23.20;80.50
37222;DHT22;23119;51.842;-2.230;2023-05-17T10:17:25;23.50;80.60
37222;DHT22;23119;51.842;-2.230;2023-05-17T10:19:55;24.00;79.60
37222;DHT22;23119;51.842;-2.230;2023-05-17T10:22:21;24.40;79.40
37222;DHT22;23119;51.842;-2.230;2023-05-17T10:24:48;24.40;78.30
37222;DHT22;23119;51.842;-2.230;2023-05-17T10:27:15;24.40;78.20
37222;DHT22;23119;51.842;-2.230;2023-05-17T10:29:44;24.30;78.10
37222;DHT22;23119;51.842;-2.230;2023-05-17T10:32:13;24.20;78.60
37222;DHT22;23119;51.842;-2.230;2023-05-17T10:34:39;24.20;79.20
37222;DHT22;23119;51.842;-2.230;2023-05-17T10:37:06;24.30;79.40
37222;DHT22;23119;51.842;-2.230;2023-05-17T10:39:32;24.60;79.20
37222;DHT22;23119;51.842;-2.230;2023-05-17T10:42:01;24.90;78.60
37222;DHT22;23119;51.842;-2.230;2023-05-17T10:44:32;25.00;78.10
37222;DHT22;23119;51.842;-2.230;2023-05-17T10:47:03;25.00;78.30
37222;DHT22;23119;51.842;-2.230;2023-05-17T10:49:30;25.10;78.00
37222;DHT22;23119;51.842;-2.230;2023-05-17T10:52:14;25.20;77.90
37222;DHT22;23119;51.842;-2.230;2023-05-17T10:54:46;25.10;77.20
37222;DHT22;23119;51.842;-2.230;2023-05-17T10:57:34;24.90;77.30
37222;DHT22;23119;51.842;-2.230;2023-05-17T11:00:06;24.70;77.10
37222;DHT22;23119;51.842;-2.230;2023-05-17T11:02:39;24.60;77.60
37222;DHT22;23119;51.842;-2.230;2023-05-17T11:05:22;24.40;77.90
37222;DHT22;23119;51.842;-2.230;2023-05-17T11:07:48;24.10;78.80
37222;DHT22;23119;51.842;-2.230;2023-05-17T11:10:17;23.80;78.80
37222;DHT22;23119;51.842;-2.230;2023-05-17T11:12:45;23.50;79.50
37222;DHT22;23119;51.842;-2.230;2023-05-17T11:15:14;23.20;80.00
37222;DHT22;23119;51.842;-2.230;2023-05-17T11:23:04;22.70;81.20
37222;DHT22;23119;51.842;-2.230;2023-05-17T11:25:36;22.80;81.40
37222;DHT22;23119;51.842;-2.230;2023-05-17T11:28:20;23.10;81.90
37222;DHT22;23119;51.842;-2.230;2023-05-17T11:30:46;23.60;81.90
37222;DHT22;23119;51.842;-2.230;2023-05-17T11:33:18;24.10;81.00
37222;DHT22;23119;51.842;-2.230;2023-05-17T11:35:46;24.50;79.80
37222;DHT22;23119;51.842;-2.230;2023-05-17T11:38:26;24.70;78.90
37222;DHT22;23119;51.842;-2.230;2023-05-17T11:40:55;24.90;77.70
37222;DHT22;23119;51.842;-2.230;2023-05-17T11:43:26;24.90;77.90
37222;DHT22;23119;51.842;-2.230;2023-05-17T11:45:56;24.90;77.70
37222;DHT22;23119;51.842;-2.230;2023-05-17T11:48:24;24.80;76.30
37222;DHT22;23119;51.842;-2.230;2023-05-17T11:50:52;24.60;76.70
37222;DHT22;23119;51.842;-2.230;2023-05-17T11:53:18;24.50;76.80
37222;DHT22;23119;51.842;-2.230;2023-05-17T11:55:49;24.40;76.90
37222;DHT22;23119;51.842;-2.230;2023-05-17T11:58:22;24.10;77.10
37222;DHT22;23119;51.842;-2.230;2023-05-17T12:00:54;24.00;77.70
37222;DHT22;23119;51.842;-2.230;2023-05-17T12:03:22;23.90;78.20
37222;DHT22;23119;51.842;-2.230;2023-05-17T12:06:19;23.70;78.60
37222;DHT22;23119;51.842;-2.230;2023-05-17T12:08:47;23.60;78.70
37222;DHT22;23119;51.842;-2.230;2023-05-17T12:11:19;23.60;79.00
37222;DHT22;23119;51.842;-2.230;2023-05-17T12:13:47;23.60;79.50
37222;DHT22;23119;51.842;-2.230;2023-05-17T12:16:20;24.00;79.30
37222;DHT22;23119;51.842;-2.230;2023-05-17T12:18:50;24.40;79.00
37222;DHT22;23119;51.842;-2.230;2023-05-17T12:21:17;24.70;78.30
37222;DHT22;23119;51.842;-2.230;2023-05-17T12:23:44;25.10;78.30
37222;DHT22;23119;51.842;-2.230;2023-05-17T12:26:21;25.40;78.00
37222;DHT22;23119;51.842;-2.230;2023-05-17T12:28:55;25.70;77.00
37222;DHT22;23119;51.842;-2.230;2023-05-17T12:31:39;25.60;76.10
37222;DHT22;23119;51.842;-2.230;2023-05-17T12:34:09;25.30;76.10
37222;DHT22;23119;51.842;-2.230;2023-05-17T12:36:40;25.10;76.60
37222;DHT22;23119;51.842;-2.230;2023-05-17T12:39:06;24.80;76.80
37222;DHT22;23119;51.842;-2.230;2023-05-17T12:41:37;24.50;76.60
37222;DHT22;23119;51.842;-2.230;2023-05-17T12:44:04;24.40;76.60
37222;DHT22;23119;51.842;-2.230;2023-05-17T12:46:37;24.40;77.00
37222;DHT22;23119;51.842;-2.230;2023-05-17T12:49:07;24.50;77.30
37222;DHT22;23119;51.842;-2.230;2023-05-17T12:51:40;24.60;77.40
37222;DHT22;23119;51.842;-2.230;2023-05-17T12:54:27;24.90;76.70
37222;DHT22;23119;51.842;-2.230;2023-05-17T12:56:54;24.80;74.90
37222;DHT22;23119;51.842;-2.230;2023-05-17T12:59:20;24.70;75.90
37222;DHT22;23119;51.842;-2.230;2023-05-17T13:01:55;24.60;75.70
37222;DHT22;23119;51.842;-2.230;2023-05-17T13:04:32;24.40;75.00
37222;DHT22;23119;51.842;-2.230;2023-05-17T13:07:05;24.40;74.30
37222;DHT22;23119;51.842;-2.230;2023-05-17T13:09:32;24.20;75.40
37222;DHT22;23119;51.842;-2.230;2023-05-17T13:12:00;24.20;76.00
37222;DHT22;23119;51.842;-2.230;2023-05-17T13:17:07;24.50;76.20
37222;DHT22;23119;51.842;-2.230;2023-05-17T13:19:33;24.50;76.60
37222;DHT22;23119;51.842;-2.230;2023-05-17T13:22:01;24.50;76.80
37222;DHT22;23119;51.842;-2.230;2023-05-17T13:24:27;24.40;76.50
37222;DHT22;23119;51.842;-2.230;2023-05-17T13:26:53;24.30;76.70
37222;DHT22;23119;51.842;-2.230;2023-05-17T13:29:19;24.40;77.00
37222;DHT22;23119;51.842;-2.230;2023-05-17T13:31:45;24.40;75.70
37222;DHT22;23119;51.842;-2.230;2023-05-17T13:34:12;24.50;75.80
37222;DHT22;23119;51.842;-2.230;2023-05-17T13:36:38;24.40;75.60
37222;DHT22;23119;51.842;-2.230;2023-05-17T13:39:06;24.40;76.00
37222;DHT22;23119;51.842;-2.230;2023-05-17T13:41:34;24.30;76.30
37222;DHT22;23119;51.842;-2.230;2023-05-17T13:44:00;24.10;76.50
37222;DHT22;23119;51.842;-2.230;2023-05-17T13:46:26;24.10;76.80
37222;DHT22;23119;51.842;-2.230;2023-05-17T13:48:52;23.90;77.00
37222;DHT22;23119;51.842;-2.230;2023-05-17T13:51:19;23.90;77.30
37222;DHT22;23119;51.842;-2.230;2023-05-17T13:53:45;24.00;77.60
37222;DHT22;23119;51.842;-2.230;2023-05-17T13:56:11;24.20;77.10
37222;DHT22;23119;51.842;-2.230;2023-05-17T13:58:36;24.30;76.60
37222;DHT22;23119;51.842;-2.230;2023-05-17T14:01:03;24.50;76.30
37222;DHT22;23119;51.842;-2.230;2023-05-17T14:03:29;24.50;76.70
37222;DHT22;23119;51.842;-2.230;2023-05-17T14:05:54;24.60;76.30
37222;DHT22;23119;51.842;-2.230;2023-05-17T14:08:20;24.50;75.90
37222;DHT22;23119;51.842;-2.230;2023-05-17T14:10:47;24.60;76.30
37222;DHT22;23119;51.842;-2.230;2023-05-17T14:13:13;24.70;74.80
37222;DHT22;23119;51.842;-2.230;2023-05-17T14:15:39;24.40;76.00
37222;DHT22;23119;51.842;-2.230;2023-05-17T14:18:06;24.20;76.20
37222;DHT22;23119;51.842;-2.230;2023-05-17T14:20:34;24.10;75.50
37222;DHT22;23119;51.842;-2.230;2023-05-17T14:23:00;23.80;75.10
37222;DHT22;23119;51.842;-2.230;2023-05-17T14:25:26;23.90;76.10
37222;DHT22;23119;51.842;-2.230;2023-05-17T14:27:52;24.00;76.40
37222;DHT22;23119;51.842;-2.230;2023-05-17T14:30:18;23.90;75.70
37222;DHT22;23119;51.842;-2.230;2023-05-17T14:32:45;23.70;75.20
37222;DHT22;23119;51.842;-2.230;2023-05-17T14:35:11;23.60;75.80
37222;DHT22;23119;51.842;-2.230;2023-05-17T14:37:37;23.50;75.90
37222;DHT22;23119;51.842;-2.230;2023-05-17T14:40:04;23.60;76.00
37222;DHT22;23119;51.842;-2.230;2023-05-17T14:42:30;23.40;75.30
37222;DHT22;23119;51.842;-2.230;2023-05-17T14:44:58;23.40;75.60
37222;DHT22;23119;51.842;-2.230;2023-05-17T14:47:24;23.40;76.20
37222;DHT22;23119;51.842;-2.230;2023-05-17T14:49:50;23.40;76.10
37222;DHT22;23119;51.842;-2.230;2023-05-17T14:52:16;23.20;76.40
37222;DHT22;23119;51.842;-2.230;2023-05-17T14:54:42;23.10;76.60
37222;DHT22;23119;51.842;-2.230;2023-05-17T14:57:08;22.80;76.70
37222;DHT22;23119;51.842;-2.230;2023-05-17T14:59:35;22.40;76.90
37222;DHT22;23119;51.842;-2.230;2023-05-17T15:02:01;22.30;77.40
37222;DHT22;23119;51.842;-2.230;2023-05-17T15:04:29;22.30;77.70
37222;DHT22;23119;51.842;-2.230;2023-05-17T15:06:55;22.30;77.20
37222;DHT22;23119;51.842;-2.230;2023-05-17T15:09:22;22.50;77.30
37222;DHT22;23119;51.842;-2.230;2023-05-17T15:11:49;22.50;77.00
37222;DHT22;23119;51.842;-2.230;2023-05-17T15:14:15;22.60;77.40
37222;DHT22;23119;51.842;-2.230;2023-05-17T15:16:51;22.80;78.00
37222;DHT22;23119;51.842;-2.230;2023-05-17T15:19:17;23.00;77.80
37222;DHT22;23119;51.842;-2.230;2023-05-17T15:21:49;23.00;77.30
37222;DHT22;23119;51.842;-2.230;2023-05-17T15:24:17;23.00;76.50
37222;DHT22;23119;51.842;-2.230;2023-05-17T15:27:03;22.90;76.60
37222;DHT22;23119;51.842;-2.230;2023-05-17T15:29:39;22.60;76.80
37222;DHT22;23119;51.842;-2.230;2023-05-17T15:32:07;22.30;78.00
37222;DHT22;23119;51.842;-2.230;2023-05-17T15:34:33;22.10;77.30
37222;DHT22;23119;51.842;-2.230;2023-05-17T15:36:59;22.10;77.90
37222;DHT22;23119;51.842;-2.230;2023-05-17T15:39:26;22.10;78.30
37222;DHT22;23119;51.842;-2.230;2023-05-17T15:41:55;22.10;78.60